createdAt,value
2022-11-27T00:00:57.904Z,4.81
2022-11-27T00:03:41.338Z,4.81
2022-11-27T00:06:12.017Z,4.82
2022-11-27T00:08:39.225Z,4.82
2022-11-27T00:11:07.948Z,4.74
2022-11-27T00:13:35.755Z,4.66
2022-11-27T00:16:02.778Z,4.69
2022-11-27T00:18:30.053Z,4.69
2022-11-27T00:21:02.769Z,4.67
2022-11-27T00:23:29.955Z,4.69
2022-11-27T00:25:57.433Z,4.68
2022-11-27T00:28:24.777Z,4.68
2022-11-27T00:30:51.989Z,4.48
2022-11-27T00:33:19.444Z,4.56
2022-11-27T00:35:46.344Z,4.49
2022-11-27T00:38:14.996Z,4.41
2022-11-27T00:40:41.992Z,4.37
2022-11-27T00:43:09.151Z,4.38
2022-11-27T00:45:36.019Z,4.33
2022-11-27T00:48:03.547Z,4.29
2022-11-27T00:50:32.096Z,4.32
2022-11-27T00:52:59.679Z,4.19
2022-11-27T00:55:28.030Z,4.17
2022-11-27T00:57:55.332Z,4.19
2022-11-27T01:00:23.190Z,4.18
2022-11-27T01:02:50.439Z,4.18
2022-11-27T01:05:17.480Z,4.11
2022-11-27T01:07:44.759Z,4.10
2022-11-27T01:10:12.779Z,4.11
2022-11-27T01:12:41.449Z,4.09
2022-11-27T01:15:09.710Z,4.12
2022-11-27T01:17:36.822Z,4.12
2022-11-27T01:20:04.446Z,3.95
2022-11-27T01:22:32.855Z,4.03
2022-11-27T01:24:59.876Z,4.05
2022-11-27T01:27:27.122Z,4.13
2022-11-27T01:29:55.462Z,4.15
2022-11-27T01:32:22.719Z,4.14
2022-11-27T01:34:50.082Z,4.12
2022-11-27T01:37:17.468Z,4.18
2022-11-27T01:39:44.414Z,4.20
2022-11-27T01:42:12.131Z,4.23
2022-11-27T01:44:55.800Z,4.11
2022-11-27T01:47:34.888Z,3.99
2022-11-27T01:50:13.799Z,3.97
2022-11-27T01:52:48.357Z,4.00
2022-11-27T01:55:21.712Z,4.05
2022-11-27T01:57:51.744Z,4.12
2022-11-27T02:00:20.749Z,4.23
2022-11-27T02:02:49.396Z,4.24
2022-11-27T02:05:20.694Z,4.16
2022-11-27T02:07:48.941Z,4.17
2022-11-27T02:10:16.768Z,4.24
2022-11-27T02:12:52.526Z,4.16
2022-11-27T02:15:31.557Z,4.11
2022-11-27T02:18:06.840Z,4.21
2022-11-27T02:20:45.598Z,4.20
2022-11-27T02:23:26.004Z,4.04
2022-11-27T02:26:13.390Z,3.80
2022-11-27T02:28:54.262Z,3.58
2022-11-27T02:31:28.279Z,3.52
2022-11-27T02:34:07.984Z,3.46
2022-11-27T02:36:37.073Z,3.47
2022-11-27T02:39:11.343Z,3.49
2022-11-27T02:41:49.722Z,3.37
2022-11-27T02:44:23.755Z,3.13
2022-11-27T02:46:54.863Z,3.13
2022-11-27T02:49:22.551Z,3.18
2022-11-27T02:51:57.257Z,3.18
2022-11-27T02:54:28.588Z,3.24
2022-11-27T02:57:01.950Z,3.27
2022-11-27T02:59:33.639Z,3.32
2022-11-27T03:02:05.755Z,3.21
2022-11-27T03:04:39.362Z,3.17
2022-11-27T03:07:12.694Z,3.18
2022-11-27T03:09:43.474Z,3.11
2022-11-27T03:12:15.244Z,2.99
2022-11-27T03:14:45.954Z,2.93
2022-11-27T03:17:22.469Z,2.93
2022-11-27T03:19:53.584Z,3.08
2022-11-27T03:22:20.619Z,3.21
2022-11-27T03:24:53.879Z,3.35
2022-11-27T03:27:26.794Z,3.47
2022-11-27T03:29:58.296Z,3.60
2022-11-27T03:32:26.712Z,3.57
2022-11-27T03:34:55.014Z,3.65
2022-11-27T03:37:23.423Z,3.67
2022-11-27T03:39:50.908Z,3.58
2022-11-27T03:42:24.943Z,3.47
2022-11-27T03:45:00.252Z,3.50
2022-11-27T03:47:41.357Z,3.56
2022-11-27T03:50:20.541Z,3.56
2022-11-27T03:52:59.066Z,3.64
2022-11-27T03:55:35.075Z,3.79
2022-11-27T03:58:06.152Z,3.85
2022-11-27T04:00:39.393Z,3.84
2022-11-27T04:03:10.688Z,3.91
2022-11-27T04:05:38.025Z,3.95
2022-11-27T04:08:05.550Z,4.07
2022-11-27T04:10:32.708Z,4.02
2022-11-27T04:12:59.701Z,3.97
2022-11-27T04:15:26.939Z,4.00
2022-11-27T04:17:55.233Z,3.86
2022-11-27T04:20:22.459Z,3.82
2022-11-27T04:22:49.380Z,3.89
2022-11-27T04:25:16.828Z,4.01
2022-11-27T04:27:43.784Z,4.12
2022-11-27T04:30:12.155Z,4.20
2022-11-27T04:32:39.344Z,4.24
2022-11-27T04:35:09.013Z,4.28
2022-11-27T04:37:36.351Z,4.30
2022-11-27T04:40:04.711Z,4.22
2022-11-27T04:42:31.597Z,4.14
2022-11-27T04:44:59.984Z,4.16
2022-11-27T04:47:26.866Z,4.11
2022-11-27T04:49:56.397Z,4.14
2022-11-27T04:52:24.458Z,4.07
2022-11-27T04:54:56.801Z,4.00
2022-11-27T04:57:29.640Z,3.83
2022-11-27T04:59:56.817Z,3.81
2022-11-27T05:02:23.782Z,3.90
2022-11-27T05:04:56.674Z,3.81
2022-11-27T05:07:25.323Z,3.78
2022-11-27T05:09:52.611Z,3.87
2022-11-27T05:12:19.437Z,3.83
2022-11-27T05:14:51.780Z,3.72
2022-11-27T05:17:18.678Z,3.69
2022-11-27T05:19:45.907Z,3.52
2022-11-27T05:22:15.538Z,3.51
2022-11-27T05:24:46.887Z,3.52
2022-11-27T05:27:13.836Z,3.46
2022-11-27T05:29:41.070Z,3.40
2022-11-27T05:32:07.955Z,3.24
2022-11-27T05:34:35.342Z,3.32
2022-11-27T05:37:02.235Z,3.30
2022-11-27T05:39:29.463Z,3.29
2022-11-27T05:41:57.770Z,3.20
2022-11-27T05:44:27.184Z,3.12
2022-11-27T05:46:53.888Z,3.17
2022-11-27T05:49:21.259Z,3.03
2022-11-27T05:51:51.388Z,2.99
2022-11-27T05:54:19.853Z,2.97
2022-11-27T05:56:46.946Z,2.96
2022-11-27T05:59:21.194Z,2.95
2022-11-27T06:01:49.594Z,3.00
2022-11-27T06:04:17.173Z,3.11
2022-11-27T06:06:47.272Z,3.12
2022-11-27T06:09:14.406Z,3.10
2022-11-27T06:11:44.206Z,3.10
2022-11-27T06:14:11.863Z,3.16
2022-11-27T06:16:40.141Z,3.24
2022-11-27T06:19:09.298Z,3.22
2022-11-27T06:21:36.415Z,3.18
2022-11-27T06:24:04.394Z,3.23
2022-11-27T06:26:33.294Z,3.35
2022-11-27T06:29:00.889Z,3.36
2022-11-27T06:31:33.032Z,3.31
2022-11-27T06:34:08.838Z,3.34
2022-11-27T06:36:40.772Z,3.44
2022-11-27T06:39:10.225Z,3.42
2022-11-27T06:41:37.982Z,3.29
2022-11-27T06:44:05.374Z,3.32
2022-11-27T06:46:34.846Z,3.27
2022-11-27T06:49:03.541Z,3.33
2022-11-27T06:51:32.055Z,3.19
2022-11-27T06:54:02.701Z,3.05
2022-11-27T06:56:32.766Z,2.99
2022-11-27T06:59:02.641Z,3.09
2022-11-27T07:01:31.225Z,3.13
2022-11-27T07:03:59.043Z,3.18
2022-11-27T07:06:28.087Z,3.38
2022-11-27T07:08:55.630Z,3.43
2022-11-27T07:11:31.675Z,3.43
2022-11-27T07:14:00.342Z,3.34
2022-11-27T07:16:28.968Z,3.17
2022-11-27T07:18:58.875Z,3.08
2022-11-27T07:21:27.803Z,3.01
2022-11-27T07:23:56.583Z,2.88
2022-11-27T07:26:25.070Z,2.91
2022-11-27T07:28:55.669Z,2.98
2022-11-27T07:31:24.649Z,2.91
2022-11-27T07:33:52.608Z,2.89
2022-11-27T07:36:21.478Z,2.91
2022-11-27T07:38:50.102Z,2.95
2022-11-27T07:41:17.644Z,2.96
2022-11-27T07:43:48.598Z,2.92
2022-11-27T07:46:17.837Z,2.91
2022-11-27T07:48:45.212Z,2.73
2022-11-27T07:51:16.735Z,2.77
2022-11-27T07:53:44.746Z,2.77
2022-11-27T07:56:16.250Z,2.88
2022-11-27T07:58:44.746Z,3.03
2022-11-27T08:01:15.183Z,3.02
2022-11-27T08:03:44.309Z,3.09
2022-11-27T08:06:17.442Z,3.15
2022-11-27T08:08:44.744Z,3.18
2022-11-27T08:11:23.687Z,3.12
2022-11-27T08:13:55.596Z,3.12
2022-11-27T08:16:25.417Z,3.10
2022-11-27T08:18:54.735Z,3.18
2022-11-27T08:21:21.652Z,3.37
2022-11-27T08:23:49.009Z,3.32
2022-11-27T08:26:16.142Z,3.32
2022-11-27T08:28:45.310Z,3.31
2022-11-27T08:31:13.721Z,3.64
2022-11-27T08:33:41.351Z,3.90
2022-11-27T08:36:18.623Z,4.19
2022-11-27T08:38:46.372Z,4.15
2022-11-27T08:41:13.301Z,4.01
2022-11-27T08:43:40.585Z,3.94
2022-11-27T08:46:09.536Z,3.86
2022-11-27T08:48:39.562Z,3.87
2022-11-27T08:51:10.424Z,3.92
2022-11-27T08:53:38.592Z,3.94
2022-11-27T08:56:06.868Z,4.15
2022-11-27T08:58:34.405Z,4.20
2022-11-27T09:01:09.515Z,4.37
2022-11-27T09:03:36.946Z,4.23
2022-11-27T09:06:07.317Z,4.10
2022-11-27T09:08:34.498Z,4.10
2022-11-27T09:11:01.902Z,4.01
2022-11-27T09:13:29.083Z,3.94
2022-11-27T09:15:56.287Z,4.09
2022-11-27T09:18:25.201Z,4.12
2022-11-27T09:20:56.885Z,3.99
2022-11-27T09:23:24.536Z,3.83
2022-11-27T09:25:51.510Z,3.91
2022-11-27T09:28:18.920Z,3.89
2022-11-27T09:30:48.383Z,3.68
2022-11-27T09:33:15.690Z,3.67
2022-11-27T09:35:44.524Z,3.82
2022-11-27T09:38:11.512Z,4.03
2022-11-27T09:40:44.212Z,4.07
2022-11-27T09:43:12.480Z,4.11
2022-11-27T09:45:44.702Z,4.12
2022-11-27T09:48:18.589Z,4.09
2022-11-27T09:50:50.938Z,4.11
2022-11-27T09:53:25.791Z,4.16
2022-11-27T09:55:55.404Z,4.24
2022-11-27T09:58:35.457Z,4.60
2022-11-27T10:01:10.638Z,4.86
2022-11-27T10:03:41.051Z,4.96
2022-11-27T10:06:24.090Z,4.78
2022-11-27T10:09:06.333Z,4.58
2022-11-27T10:11:42.249Z,4.58
2022-11-27T10:14:29.175Z,4.73
2022-11-27T10:17:02.758Z,4.64
2022-11-27T10:19:40.138Z,4.70
2022-11-27T10:22:19.654Z,4.81
2022-11-27T10:25:01.710Z,4.76
2022-11-27T10:27:35.294Z,4.73
2022-11-27T10:30:04.725Z,4.90
2022-11-27T10:32:54.786Z,4.89
2022-11-27T10:35:22.425Z,4.95
2022-11-27T10:37:55.871Z,5.04
2022-11-27T10:40:26.451Z,5.22
2022-11-27T10:43:00.145Z,5.22
2022-11-27T10:45:33.985Z,5.36
2022-11-27T10:48:00.937Z,5.39
2022-11-27T10:50:28.123Z,5.42
2022-11-27T10:53:00.507Z,5.44
2022-11-27T10:55:39.111Z,5.41
2022-11-27T10:58:16.326Z,5.24
2022-11-27T11:00:45.543Z,5.22
2022-11-27T11:03:16.943Z,5.42
2022-11-27T11:08:44.376Z,5.86
2022-11-27T11:11:12.101Z,5.94
2022-11-27T11:13:46.805Z,5.99
2022-11-27T11:16:24.351Z,6.06
2022-11-27T11:18:53.186Z,6.20
2022-11-27T11:21:29.812Z,6.25
2022-11-27T11:24:01.113Z,6.19
2022-11-27T11:26:31.374Z,6.13
2022-11-27T11:29:00.554Z,6.06
2022-11-27T11:31:32.320Z,6.20
2022-11-27T11:34:02.883Z,6.15
2022-11-27T11:36:30.503Z,6.19
2022-11-27T11:38:59.505Z,6.29
2022-11-27T11:41:37.162Z,6.27
2022-11-27T11:44:04.710Z,6.25
2022-11-27T11:46:36.421Z,6.28
2022-11-27T11:49:08.324Z,6.25
2022-11-27T11:51:49.528Z,6.30
2022-11-27T11:54:31.500Z,6.36
2022-11-27T11:57:03.017Z,6.38
2022-11-27T11:59:45.128Z,6.36
2022-11-27T12:02:39.009Z,6.58
2022-11-27T12:05:22.459Z,6.72
2022-11-27T12:08:05.957Z,6.86
2022-11-27T12:10:45.696Z,6.75
2022-11-27T12:13:31.681Z,6.77
2022-11-27T12:16:07.713Z,6.91
2022-11-27T12:18:45.254Z,7.03
2022-11-27T12:21:15.400Z,7.09
2022-11-27T12:23:56.084Z,7.09
2022-11-27T12:26:32.380Z,7.06
2022-11-27T12:29:22.512Z,7.03
2022-11-27T12:32:12.042Z,6.95
2022-11-27T12:34:55.458Z,6.87
2022-11-27T12:37:36.767Z,6.92
2022-11-27T12:40:24.386Z,7.14
2022-11-27T12:43:06.695Z,7.31
2022-11-27T12:45:39.123Z,7.42
2022-11-27T12:48:14.570Z,7.37
2022-11-27T12:50:45.607Z,7.32
2022-11-27T12:53:24.416Z,7.24
2022-11-27T12:56:05.459Z,7.16
2022-11-27T12:58:41.300Z,6.88
2022-11-27T13:01:14.245Z,6.56
2022-11-27T13:06:51.231Z,6.40
2022-11-27T13:09:29.512Z,6.38
2022-11-27T13:11:59.237Z,6.38
2022-11-27T13:14:30.886Z,6.38
2022-11-27T13:17:03.041Z,6.40
2022-11-27T13:19:33.029Z,6.29
2022-11-27T13:22:03.265Z,6.23
2022-11-27T13:24:30.575Z,6.30
2022-11-27T13:27:06.636Z,6.30
2022-11-27T13:29:44.150Z,6.41
2022-11-27T13:32:20.148Z,6.53
2022-11-27T13:34:48.168Z,6.41
2022-11-27T13:37:27.719Z,6.44
2022-11-27T13:40:01.311Z,6.53
2022-11-27T13:42:29.307Z,6.52
2022-11-27T13:45:00.729Z,6.55
2022-11-27T13:47:30.791Z,6.61
2022-11-27T13:50:02.878Z,6.62
2022-11-27T13:52:30.850Z,6.38
2022-11-27T13:55:00.259Z,6.50
2022-11-27T13:57:29.195Z,6.46
2022-11-27T14:00:03.156Z,6.50
2022-11-27T14:02:45.545Z,6.58
2022-11-27T14:05:14.452Z,6.55
2022-11-27T14:07:43.615Z,6.50
2022-11-27T14:10:13.793Z,6.38
2022-11-27T14:12:42.909Z,6.34
2022-11-27T14:15:23.416Z,6.27
2022-11-27T14:18:04.800Z,6.30
2022-11-27T14:20:41.238Z,6.22
2022-11-27T14:23:12.742Z,6.14
2022-11-27T14:25:40.974Z,5.96
2022-11-27T14:28:15.792Z,5.84
2022-11-27T14:30:50.109Z,5.75
2022-11-27T14:33:20.297Z,5.64
2022-11-27T14:35:51.745Z,5.61
2022-11-27T14:38:19.232Z,5.52
2022-11-27T14:40:46.506Z,5.43
2022-11-27T14:43:18.066Z,5.28
2022-11-27T14:45:49.962Z,5.11
2022-11-27T14:48:21.212Z,5.15
2022-11-27T14:50:49.832Z,5.18
2022-11-27T14:53:19.302Z,5.23
2022-11-27T14:55:48.491Z,5.22
2022-11-27T14:58:19.552Z,5.14
2022-11-27T15:00:56.887Z,5.09
2022-11-27T15:03:25.308Z,5.05
2022-11-27T15:05:55.634Z,5.00
2022-11-27T15:08:23.220Z,4.95
2022-11-27T15:10:54.153Z,4.87
2022-11-27T15:13:24.219Z,4.80
2022-11-27T15:16:03.893Z,4.84
2022-11-27T15:18:35.546Z,4.81
2022-11-27T15:21:04.136Z,4.83
2022-11-27T15:23:34.289Z,4.84
2022-11-27T15:26:14.358Z,4.73
2022-11-27T15:28:50.451Z,4.70
2022-11-27T15:31:28.221Z,4.68
2022-11-27T15:34:01.267Z,4.66
2022-11-27T15:36:35.956Z,4.59
2022-11-27T15:39:23.365Z,4.53
2022-11-27T15:41:52.550Z,4.53
2022-11-27T15:44:20.885Z,4.57
2022-11-27T15:46:50.700Z,4.56
2022-11-27T15:49:20.142Z,4.57
2022-11-27T15:51:46.826Z,4.58
2022-11-27T15:54:14.210Z,4.56
2022-11-27T15:56:41.395Z,4.60
2022-11-27T15:59:12.145Z,4.57
2022-11-27T16:01:39.013Z,4.55
2022-11-27T16:04:07.607Z,4.56
2022-11-27T16:06:35.860Z,4.54
2022-11-27T16:09:04.964Z,4.57
2022-11-27T16:11:32.649Z,4.60
2022-11-27T16:14:00.010Z,4.62
2022-11-27T16:16:27.694Z,4.66
2022-11-27T16:18:57.341Z,4.65
2022-11-27T16:21:29.656Z,4.66
2022-11-27T16:23:58.433Z,4.66
2022-11-27T16:26:26.201Z,4.68
2022-11-27T16:28:53.594Z,4.68
2022-11-27T16:31:21.248Z,4.69
2022-11-27T16:33:49.043Z,4.74
2022-11-27T16:36:20.581Z,4.77
2022-11-27T16:38:51.726Z,4.83
2022-11-27T16:41:19.249Z,4.83
2022-11-27T16:43:48.721Z,4.83
2022-11-27T16:46:22.123Z,4.84
2022-11-27T16:48:50.183Z,4.84
2022-11-27T16:51:19.137Z,4.79
2022-11-27T16:53:47.244Z,4.78
2022-11-27T16:56:19.893Z,4.80
2022-11-27T16:58:47.696Z,4.81
2022-11-27T17:01:17.784Z,4.81
2022-11-27T17:03:45.403Z,4.82
2022-11-27T17:06:14.354Z,4.78
2022-11-27T17:08:56.679Z,4.75
2022-11-27T17:11:27.764Z,4.73
2022-11-27T17:13:57.359Z,4.65
2022-11-27T17:16:25.050Z,4.66
2022-11-27T17:18:53.500Z,4.69
2022-11-27T17:21:24.303Z,4.68
2022-11-27T17:23:54.056Z,4.69
2022-11-27T17:26:23.553Z,4.68
2022-11-27T17:28:55.606Z,4.66
2022-11-27T17:31:24.664Z,4.65
2022-11-27T17:33:54.396Z,4.64
2022-11-27T17:36:21.248Z,4.68
2022-11-27T17:38:48.458Z,4.69
2022-11-27T17:41:15.634Z,4.64
2022-11-27T17:43:43.902Z,4.74
2022-11-27T17:46:20.516Z,4.76
2022-11-27T17:48:49.536Z,4.63
2022-11-27T17:51:16.920Z,4.80
2022-11-27T17:53:45.800Z,4.84
2022-11-27T17:56:17.893Z,4.71
2022-11-27T17:58:45.368Z,4.73
2022-11-27T18:01:17.260Z,4.75
2022-11-27T18:03:47.335Z,4.69
2022-11-27T18:06:15.911Z,4.66
2022-11-27T18:08:44.813Z,4.77
2022-11-27T18:11:13.668Z,4.79
2022-11-27T18:13:41.154Z,4.71
2022-11-27T18:16:10.177Z,4.65
2022-11-27T18:18:39.327Z,4.59
2022-11-27T18:21:15.383Z,4.56
2022-11-27T18:24:20.781Z,4.54
2022-11-27T18:27:06.674Z,4.59
2022-11-27T18:29:24.549Z,4.64
2022-11-27T18:31:52.796Z,4.64
2022-11-27T18:34:21.862Z,4.62
2022-11-27T18:36:48.764Z,4.70
2022-11-27T18:39:15.902Z,4.71
2022-11-27T18:41:43.066Z,4.76
2022-11-27T18:44:10.480Z,4.80
2022-11-27T18:46:37.798Z,4.72
2022-11-27T18:49:05.499Z,4.71
2022-11-27T18:51:34.499Z,4.76
2022-11-27T18:54:05.809Z,4.88
2022-11-27T18:56:37.135Z,4.86
2022-11-27T18:59:14.924Z,4.86
2022-11-27T19:01:44.422Z,4.84
2022-11-27T19:04:12.481Z,4.76
2022-11-27T19:06:43.515Z,4.64
2022-11-27T19:09:13.937Z,4.57
2022-11-27T19:11:42.986Z,4.55
2022-11-27T19:14:10.705Z,4.54
2022-11-27T19:16:43.755Z,4.51
2022-11-27T19:19:52.414Z,4.49
2022-11-27T19:22:03.183Z,4.53
2022-11-27T19:24:30.614Z,4.59
2022-11-27T19:26:57.904Z,4.64
2022-11-27T19:29:25.113Z,4.69
2022-11-27T19:31:52.222Z,4.71
2022-11-27T19:34:19.572Z,4.73
2022-11-27T19:36:54.575Z,4.71
2022-11-27T19:39:27.889Z,4.70
2022-11-27T19:41:57.861Z,4.55
2022-11-27T19:44:25.670Z,4.56
2022-11-27T19:46:54.872Z,4.46
2022-11-27T19:49:26.070Z,4.43
2022-11-27T19:51:53.061Z,4.44
2022-11-27T19:54:21.808Z,4.31
2022-11-27T19:56:50.474Z,4.33
2022-11-27T19:59:22.739Z,4.29
2022-11-27T20:01:52.452Z,4.33
2022-11-27T20:04:20.501Z,4.32
2022-11-27T20:06:51.383Z,4.29
2022-11-27T20:09:18.794Z,4.32
2022-11-27T20:11:51.676Z,4.35
2022-11-27T20:14:21.778Z,4.39
2022-11-27T20:16:52.126Z,4.40
2022-11-27T20:19:19.566Z,4.43
2022-11-27T20:21:46.637Z,4.50
2022-11-27T20:24:14.478Z,4.49
2022-11-27T20:26:43.037Z,4.55
2022-11-27T20:29:12.343Z,4.53
2022-11-27T20:31:45.861Z,4.46
2022-11-27T20:34:22.148Z,4.50
2022-11-27T20:36:51.954Z,4.56
2022-11-27T20:39:21.963Z,4.69
2022-11-27T20:41:53.339Z,4.68
2022-11-27T20:44:23.404Z,4.65
2022-11-27T20:46:51.708Z,4.63
2022-11-27T20:49:21.306Z,4.50
2022-11-27T20:51:51.403Z,4.37
2022-11-27T20:54:19.562Z,4.45
2022-11-27T20:56:47.582Z,4.44
2022-11-27T20:59:14.834Z,4.38
2022-11-27T21:01:43.367Z,4.43
2022-11-27T21:04:19.976Z,4.55
2022-11-27T21:06:47.188Z,4.59
2022-11-27T21:09:14.357Z,4.64
2022-11-27T21:11:41.777Z,4.71
2022-11-27T21:14:11.708Z,4.68
2022-11-27T21:16:46.087Z,4.79
2022-11-27T21:19:16.977Z,4.79
2022-11-27T21:21:44.264Z,4.68
2022-11-27T21:24:11.928Z,4.60
2022-11-27T21:26:40.175Z,4.54
2022-11-27T21:29:07.662Z,4.52
2022-11-27T21:31:37.767Z,4.42
2022-11-27T21:34:07.581Z,4.35
2022-11-27T21:36:37.810Z,4.39
2022-11-27T21:39:07.243Z,4.38
2022-11-27T21:41:34.459Z,4.26
2022-11-27T21:44:02.500Z,4.31
2022-11-27T21:46:32.937Z,4.46
2022-11-27T21:49:01.110Z,4.61
2022-11-27T21:51:29.806Z,4.64
2022-11-27T21:53:59.540Z,4.74
2022-11-27T21:56:28.456Z,4.67
2022-11-27T21:58:57.930Z,4.69
2022-11-27T22:01:26.123Z,4.73
2022-11-27T22:03:57.364Z,4.74
2022-11-27T22:06:27.068Z,4.71
2022-11-27T22:08:56.751Z,4.60
2022-11-27T22:11:31.271Z,4.48
2022-11-27T22:14:01.072Z,4.41
2022-11-27T22:16:30.008Z,4.34
2022-11-27T22:18:58.533Z,4.29
2022-11-27T22:21:27.291Z,4.26
2022-11-27T22:23:54.637Z,4.14
2022-11-27T22:26:23.783Z,4.02
2022-11-27T22:28:52.719Z,3.93
2022-11-27T22:31:22.019Z,3.90
2022-11-27T22:33:49.844Z,3.94
2022-11-27T22:36:19.222Z,3.89
2022-11-27T22:38:48.305Z,3.93
2022-11-27T22:41:16.238Z,3.89
2022-11-27T22:43:44.193Z,3.96
2022-11-27T22:46:15.432Z,3.91
2022-11-27T22:48:43.031Z,3.88
2022-11-27T22:51:10.438Z,3.85
2022-11-27T22:53:37.993Z,3.83
2022-11-27T22:56:06.599Z,3.74
2022-11-27T22:58:41.618Z,3.69
2022-11-27T23:01:13.911Z,3.67
2022-11-27T23:03:43.076Z,3.72
2022-11-27T23:06:12.118Z,3.85
2022-11-27T23:08:40.021Z,3.95
2022-11-27T23:11:07.720Z,3.98
2022-11-27T23:13:35.554Z,3.90
2022-11-27T23:16:02.961Z,3.98
2022-11-27T23:18:30.320Z,4.05
2022-11-27T23:20:58.702Z,4.10
2022-11-27T23:23:26.138Z,4.12
2022-11-27T23:25:52.962Z,4.12
2022-11-27T23:28:20.202Z,4.04
2022-11-27T23:30:48.491Z,4.02
2022-11-27T23:33:19.864Z,3.95
2022-11-27T23:35:46.760Z,3.81
2022-11-27T23:38:15.301Z,3.77
2022-11-27T23:40:42.163Z,3.84
2022-11-27T23:43:09.522Z,3.92
2022-11-27T23:45:38.261Z,3.94
2022-11-27T23:48:05.680Z,3.96
2022-11-27T23:50:32.643Z,4.02
2022-11-27T23:52:59.832Z,3.96
2022-11-27T23:55:28.143Z,3.93
2022-11-27T23:57:55.449Z,3.96
